sensor_id;sensor_type;location;lat;lon;timestamp;P1;durP1;ratioP1;P2;durP2;ratioP2
20844;SDS011;10583;49.084;8.646;2023-06-22T00:01:17;6.90;;;6.90;;
20844;SDS011;10583;49.084;8.646;2023-06-22T00:03:46;6.60;;;6.60;;
20844;SDS011;10583;49.084;8.646;2023-06-22T00:06:12;6.40;;;6.40;;
20844;SDS011;10583;49.084;8.646;2023-06-22T00:08:41;6.53;;;6.53;;
20844;SDS011;10583;49.084;8.646;2023-06-22T00:11:07;6.10;;;6.10;;
20844;SDS011;10583;49.084;8.646;2023-06-22T00:13:34;6.07;;;6.07;;
20844;SDS011;10583;49.084;8.646;2023-06-22T00:16:01;6.03;;;6.03;;
20844;SDS011;10583;49.084;8.646;2023-06-22T00:18:27;5.83;;;5.83;;
20844;SDS011;10583;49.084;8.646;2023-06-22T00:20:55;6.03;;;6.03;;
20844;SDS011;10583;49.084;8.646;2023-06-22T00:23:23;5.77;;;5.77;;
20844;SDS011;10583;49.084;8.646;2023-06-22T00:25:52;6.60;;;6.60;;
20844;SDS011;10583;49.084;8.646;2023-06-22T00:28:18;5.60;;;5.60;;
20844;SDS011;10583;49.084;8.646;2023-06-22T00:30:46;6.13;;;6.13;;
20844;SDS011;10583;49.084;8.646;2023-06-22T00:33:13;6.13;;;6.13;;
20844;SDS011;10583;49.084;8.646;2023-06-22T00:35:41;6.15;;;6.15;;
20844;SDS011;10583;49.084;8.646;2023-06-22T00:38:08;6.70;;;6.70;;
20844;SDS011;10583;49.084;8.646;2023-06-22T00:40:34;6.47;;;6.47;;
20844;SDS011;10583;49.084;8.646;2023-06-22T00:43:03;6.47;;;6.47;;
20844;SDS011;10583;49.084;8.646;2023-06-22T00:45:31;6.13;;;6.13;;
20844;SDS011;10583;49.084;8.646;2023-06-22T00:47:58;5.60;;;5.60;;
20844;SDS011;10583;49.084;8.646;2023-06-22T00:50:26;8.43;;;8.33;;
20844;SDS011;10583;49.084;8.646;2023-06-22T00:52:55;8.03;;;8.03;;
20844;SDS011;10583;49.084;8.646;2023-06-22T00:55:23;8.07;;;8.07;;
20844;SDS011;10583;49.084;8.646;2023-06-22T00:57:51;7.37;;;7.37;;
20844;SDS011;10583;49.084;8.646;2023-06-22T01:00:22;7.10;;;7.10;;
20844;SDS011;10583;49.084;8.646;2023-06-22T01:02:53;8.87;;;8.83;;
20844;SDS011;10583;49.084;8.646;2023-06-22T01:05:21;8.97;;;8.97;;
20844;SDS011;10583;49.084;8.646;2023-06-22T01:07:56;8.80;;;8.80;;
20844;SDS011;10583;49.084;8.646;2023-06-22T01:10:34;8.10;;;8.10;;
20844;SDS011;10583;49.084;8.646;2023-06-22T01:13:09;8.00;;;8.00;;
20844;SDS011;10583;49.084;8.646;2023-06-22T01:15:45;7.67;;;7.67;;
20844;SDS011;10583;49.084;8.646;2023-06-22T01:18:19;7.10;;;7.10;;
20844;SDS011;10583;49.084;8.646;2023-06-22T01:20:51;7.70;;;7.70;;
20844;SDS011;10583;49.084;8.646;2023-06-22T01:23:21;7.77;;;7.77;;
20844;SDS011;10583;49.084;8.646;2023-06-22T01:25:56;7.90;;;7.90;;
20844;SDS011;10583;49.084;8.646;2023-06-22T01:31:19;7.37;;;7.37;;
20844;SDS011;10583;49.084;8.646;2023-06-22T01:33:49;7.30;;;7.30;;
20844;SDS011;10583;49.084;8.646;2023-06-22T01:36:18;7.07;;;7.07;;
20844;SDS011;10583;49.084;8.646;2023-06-22T01:38:46;7.03;;;7.03;;
20844;SDS011;10583;49.084;8.646;2023-06-22T01:41:14;6.93;;;6.93;;
20844;SDS011;10583;49.084;8.646;2023-06-22T01:43:42;7.73;;;7.73;;
20844;SDS011;10583;49.084;8.646;2023-06-22T01:46:11;7.63;;;7.63;;
20844;SDS011;10583;49.084;8.646;2023-06-22T01:48:38;7.13;;;7.13;;
20844;SDS011;10583;49.084;8.646;2023-06-22T01:51:05;7.43;;;7.43;;
20844;SDS011;10583;49.084;8.646;2023-06-22T01:53:32;7.03;;;7.03;;
20844;SDS011;10583;49.084;8.646;2023-06-22T01:55:59;8.07;;;8.07;;
20844;SDS011;10583;49.084;8.646;2023-06-22T01:58:26;8.53;;;8.53;;
20844;SDS011;10583;49.084;8.646;2023-06-22T02:00:56;7.60;;;7.60;;
20844;SDS011;10583;49.084;8.646;2023-06-22T02:03:30;7.70;;;7.70;;
20844;SDS011;10583;49.084;8.646;2023-06-22T02:06:01;7.70;;;7.70;;
20844;SDS011;10583;49.084;8.646;2023-06-22T02:08:32;8.63;;;8.63;;
20844;SDS011;10583;49.084;8.646;2023-06-22T02:11:03;8.40;;;8.40;;
20844;SDS011;10583;49.084;8.646;2023-06-22T02:13:32;8.97;;;8.97;;
20844;SDS011;10583;49.084;8.646;2023-06-22T02:16:00;9.07;;;9.07;;
20844;SDS011;10583;49.084;8.646;2023-06-22T02:18:27;8.30;;;8.30;;
20844;SDS011;10583;49.084;8.646;2023-06-22T02:20:55;9.13;;;9.13;;
20844;SDS011;10583;49.084;8.646;2023-06-22T02:23:22;8.57;;;8.57;;
20844;SDS011;10583;49.084;8.646;2023-06-22T02:25:48;7.97;;;7.97;;
20844;SDS011;10583;49.084;8.646;2023-06-22T02:28:15;8.90;;;8.90;;
20844;SDS011;10583;49.084;8.646;2023-06-22T02:30:42;7.77;;;7.77;;
20844;SDS011;10583;49.084;8.646;2023-06-22T02:33:09;8.47;;;8.47;;
20844;SDS011;10583;49.084;8.646;2023-06-22T02:35:35;8.07;;;8.07;;
20844;SDS011;10583;49.084;8.646;2023-06-22T02:38:03;7.90;;;7.90;;
20844;SDS011;10583;49.084;8.646;2023-06-22T02:40:30;8.30;;;8.30;;
20844;SDS011;10583;49.084;8.646;2023-06-22T02:42:57;8.83;;;8.83;;
20844;SDS011;10583;49.084;8.646;2023-06-22T02:45:27;8.03;;;8.03;;
20844;SDS011;10583;49.084;8.646;2023-06-22T02:47:53;9.10;;;9.10;;
20844;SDS011;10583;49.084;8.646;2023-06-22T02:50:20;8.73;;;8.73;;
20844;SDS011;10583;49.084;8.646;2023-06-22T02:52:47;10.17;;;10.17;;
20844;SDS011;10583;49.084;8.646;2023-06-22T02:55:15;9.23;;;9.23;;
20844;SDS011;10583;49.084;8.646;2023-06-22T02:57:42;9.23;;;9.23;;
20844;SDS011;10583;49.084;8.646;2023-06-22T03:00:10;8.97;;;8.97;;
20844;SDS011;10583;49.084;8.646;2023-06-22T03:02:42;9.07;;;9.07;;
20844;SDS011;10583;49.084;8.646;2023-06-22T03:05:09;8.73;;;8.73;;
20844;SDS011;10583;49.084;8.646;2023-06-22T03:07:38;7.87;;;7.87;;
20844;SDS011;10583;49.084;8.646;2023-06-22T03:10:06;8.10;;;8.10;;
20844;SDS011;10583;49.084;8.646;2023-06-22T03:12:35;7.83;;;7.83;;
20844;SDS011;10583;49.084;8.646;2023-06-22T03:15:03;8.20;;;8.20;;
20844;SDS011;10583;49.084;8.646;2023-06-22T03:17:30;8.13;;;8.13;;
20844;SDS011;10583;49.084;8.646;2023-06-22T03:19:57;8.67;;;8.67;;
20844;SDS011;10583;49.084;8.646;2023-06-22T03:22:24;8.80;;;8.80;;
20844;SDS011;10583;49.084;8.646;2023-06-22T03:24:50;9.07;;;9.07;;
20844;SDS011;10583;49.084;8.646;2023-06-22T03:27:17;9.50;;;9.50;;
20844;SDS011;10583;49.084;8.646;2023-06-22T03:29:45;8.13;;;8.13;;
20844;SDS011;10583;49.084;8.646;2023-06-22T03:32:12;8.43;;;8.43;;
20844;SDS011;10583;49.084;8.646;2023-06-22T03:34:38;8.87;;;8.87;;
20844;SDS011;10583;49.084;8.646;2023-06-22T03:37:05;9.83;;;9.83;;
20844;SDS011;10583;49.084;8.646;2023-06-22T03:39:32;10.00;;;9.97;;
20844;SDS011;10583;49.084;8.646;2023-06-22T03:41:58;8.90;;;8.90;;
20844;SDS011;10583;49.084;8.646;2023-06-22T03:44:25;9.20;;;9.20;;
20844;SDS011;10583;49.084;8.646;2023-06-22T03:46:53;9.77;;;9.67;;
20844;SDS011;10583;49.084;8.646;2023-06-22T03:49:20;9.33;;;9.33;;
20844;SDS011;10583;49.084;8.646;2023-06-22T03:51:46;10.20;;;10.20;;
20844;SDS011;10583;49.084;8.646;2023-06-22T03:54:13;9.63;;;9.63;;
20844;SDS011;10583;49.084;8.646;2023-06-22T03:56:40;8.97;;;8.97;;
20844;SDS011;10583;49.084;8.646;2023-06-22T03:59:06;8.77;;;8.70;;
20844;SDS011;10583;49.084;8.646;2023-06-22T04:01:33;9.30;;;9.30;;
20844;SDS011;10583;49.084;8.646;2023-06-22T04:04:01;8.90;;;8.90;;
20844;SDS011;10583;49.084;8.646;2023-06-22T04:06:28;8.97;;;8.97;;
20844;SDS011;10583;49.084;8.646;2023-06-22T04:08:54;9.43;;;9.37;;
20844;SDS011;10583;49.084;8.646;2023-06-22T04:11:21;10.23;;;10.13;;
20844;SDS011;10583;49.084;8.646;2023-06-22T04:13:48;10.23;;;10.23;;
20844;SDS011;10583;49.084;8.646;2023-06-22T04:16:16;9.77;;;9.77;;
20844;SDS011;10583;49.084;8.646;2023-06-22T04:18:43;9.00;;;9.00;;
20844;SDS011;10583;49.084;8.646;2023-06-22T04:21:11;9.90;;;9.80;;
20844;SDS011;10583;49.084;8.646;2023-06-22T04:23:37;10.67;;;10.60;;
20844;SDS011;10583;49.084;8.646;2023-06-22T04:26:04;10.17;;;10.07;;
20844;SDS011;10583;49.084;8.646;2023-06-22T04:28:31;9.40;;;9.30;;
20844;SDS011;10583;49.084;8.646;2023-06-22T04:30:59;9.83;;;9.73;;
20844;SDS011;10583;49.084;8.646;2023-06-22T04:33:26;10.30;;;10.20;;
20844;SDS011;10583;49.084;8.646;2023-06-22T04:35:54;9.57;;;9.57;;
20844;SDS011;10583;49.084;8.646;2023-06-22T04:38:23;9.53;;;9.53;;
20844;SDS011;10583;49.084;8.646;2023-06-22T04:40:50;9.57;;;9.57;;
20844;SDS011;10583;49.084;8.646;2023-06-22T04:43:18;9.40;;;9.30;;
20844;SDS011;10583;49.084;8.646;2023-06-22T04:45:44;9.90;;;9.90;;
20844;SDS011;10583;49.084;8.646;2023-06-22T04:48:11;9.27;;;9.27;;
20844;SDS011;10583;49.084;8.646;2023-06-22T04:50:40;9.70;;;9.70;;
20844;SDS011;10583;49.084;8.646;2023-06-22T04:53:07;9.40;;;9.30;;
20844;SDS011;10583;49.084;8.646;2023-06-22T04:55:36;9.40;;;9.30;;
20844;SDS011;10583;49.084;8.646;2023-06-22T04:58:06;9.30;;;9.30;;
20844;SDS011;10583;49.084;8.646;2023-06-22T05:00:33;9.90;;;9.90;;
20844;SDS011;10583;49.084;8.646;2023-06-22T05:03:01;9.57;;;9.47;;
20844;SDS011;10583;49.084;8.646;2023-06-22T05:05:28;10.33;;;10.23;;
20844;SDS011;10583;49.084;8.646;2023-06-22T05:07:56;10.47;;;10.37;;
20844;SDS011;10583;49.084;8.646;2023-06-22T05:10:25;10.70;;;10.60;;
20844;SDS011;10583;49.084;8.646;2023-06-22T05:12:53;10.47;;;10.37;;
20844;SDS011;10583;49.084;8.646;2023-06-22T05:15:20;9.90;;;9.80;;
20844;SDS011;10583;49.084;8.646;2023-06-22T05:17:48;9.53;;;9.53;;
20844;SDS011;10583;49.084;8.646;2023-06-22T05:20:14;10.63;;;10.53;;
20844;SDS011;10583;49.084;8.646;2023-06-22T05:22:43;10.20;;;10.20;;
20844;SDS011;10583;49.084;8.646;2023-06-22T05:25:10;10.37;;;10.27;;
20844;SDS011;10583;49.084;8.646;2023-06-22T05:27:37;9.13;;;9.03;;
20844;SDS011;10583;49.084;8.646;2023-06-22T05:30:07;9.80;;;9.73;;
20844;SDS011;10583;49.084;8.646;2023-06-22T05:32:34;9.93;;;9.93;;
20844;SDS011;10583;49.084;8.646;2023-06-22T05:35:01;10.23;;;10.13;;
20844;SDS011;10583;49.084;8.646;2023-06-22T05:37:28;10.17;;;10.07;;
20844;SDS011;10583;49.084;8.646;2023-06-22T05:39:55;10.20;;;10.10;;
20844;SDS011;10583;49.084;8.646;2023-06-22T05:42:22;10.00;;;10.00;;
20844;SDS011;10583;49.084;8.646;2023-06-22T05:44:50;9.83;;;9.83;;
20844;SDS011;10583;49.084;8.646;2023-06-22T05:47:19;9.97;;;9.97;;
20844;SDS011;10583;49.084;8.646;2023-06-22T05:49:47;10.40;;;10.40;;
20844;SDS011;10583;49.084;8.646;2023-06-22T05:52:14;9.90;;;9.80;;
20844;SDS011;10583;49.084;8.646;2023-06-22T05:54:41;10.57;;;10.57;;
20844;SDS011;10583;49.084;8.646;2023-06-22T05:57:08;10.90;;;10.80;;
20844;SDS011;10583;49.084;8.646;2023-06-22T05:59:34;10.40;;;10.33;;
20844;SDS011;10583;49.084;8.646;2023-06-22T06:02:01;10.18;;;10.18;;
20844;SDS011;10583;49.084;8.646;2023-06-22T06:04:29;9.88;;;9.88;;
20844;SDS011;10583;49.084;8.646;2023-06-22T06:06:56;9.80;;;9.70;;
20844;SDS011;10583;49.084;8.646;2023-06-22T06:09:23;9.82;;;9.82;;
20844;SDS011;10583;49.084;8.646;2023-06-22T06:11:49;9.55;;;9.55;;
20844;SDS011;10583;49.084;8.646;2023-06-22T06:14:16;9.40;;;9.40;;
20844;SDS011;10583;49.084;8.646;2023-06-22T06:16:43;8.88;;;8.88;;
20844;SDS011;10583;49.084;8.646;2023-06-22T06:19:09;9.05;;;9.05;;
20844;SDS011;10583;49.084;8.646;2023-06-22T06:21:37;8.75;;;8.75;;
20844;SDS011;10583;49.084;8.646;2023-06-22T06:24:04;9.27;;;9.27;;
20844;SDS011;10583;49.084;8.646;2023-06-22T06:26:31;9.02;;;8.93;;
20844;SDS011;10583;49.084;8.646;2023-06-22T06:29:00;8.95;;;8.93;;
20844;SDS011;10583;49.084;8.646;2023-06-22T06:31:28;8.98;;;8.98;;
20844;SDS011;10583;49.084;8.646;2023-06-22T06:33:55;9.05;;;9.02;;
20844;SDS011;10583;49.084;8.646;2023-06-22T06:36:22;9.55;;;9.45;;
20844;SDS011;10583;49.084;8.646;2023-06-22T06:38:50;9.43;;;9.43;;
20844;SDS011;10583;49.084;8.646;2023-06-22T06:41:17;8.82;;;8.82;;
20844;SDS011;10583;49.084;8.646;2023-06-22T06:43:46;8.88;;;8.88;;
20844;SDS011;10583;49.084;8.646;2023-06-22T06:46:12;8.13;;;8.13;;
20844;SDS011;10583;49.084;8.646;2023-06-22T06:48:39;8.73;;;8.70;;
20844;SDS011;10583;49.084;8.646;2023-06-22T06:51:06;8.65;;;8.65;;
20844;SDS011;10583;49.084;8.646;2023-06-22T06:53:34;8.48;;;8.48;;
20844;SDS011;10583;49.084;8.646;2023-06-22T06:56:02;8.25;;;8.25;;
20844;SDS011;10583;49.084;8.646;2023-06-22T06:58:30;8.02;;;8.02;;
20844;SDS011;10583;49.084;8.646;2023-06-22T07:00:57;8.50;;;8.50;;
20844;SDS011;10583;49.084;8.646;2023-06-22T07:03:23;7.80;;;7.80;;
20844;SDS011;10583;49.084;8.646;2023-06-22T07:05:50;7.45;;;7.45;;
20844;SDS011;10583;49.084;8.646;2023-06-22T07:08:17;8.00;;;8.00;;
20844;SDS011;10583;49.084;8.646;2023-06-22T07:10:44;7.97;;;7.97;;
20844;SDS011;10583;49.084;8.646;2023-06-22T07:13:11;7.45;;;7.45;;
20844;SDS011;10583;49.084;8.646;2023-06-22T07:15:38;6.85;;;6.85;;
20844;SDS011;10583;49.084;8.646;2023-06-22T07:18:05;7.65;;;7.65;;
20844;SDS011;10583;49.084;8.646;2023-06-22T07:20:32;6.78;;;6.78;;
20844;SDS011;10583;49.084;8.646;2023-06-22T07:22:58;7.15;;;7.15;;
20844;SDS011;10583;49.084;8.646;2023-06-22T07:25:25;7.60;;;7.60;;
20844;SDS011;10583;49.084;8.646;2023-06-22T07:27:59;7.13;;;7.13;;
20844;SDS011;10583;49.084;8.646;2023-06-22T07:30:28;6.97;;;6.97;;
20844;SDS011;10583;49.084;8.646;2023-06-22T07:32:57;6.80;;;6.80;;
20844;SDS011;10583;49.084;8.646;2023-06-22T07:35:28;7.22;;;7.22;;
20844;SDS011;10583;49.084;8.646;2023-06-22T07:37:55;6.30;;;6.30;;
20844;SDS011;10583;49.084;8.646;2023-06-22T07:40:22;6.57;;;6.57;;
20844;SDS011;10583;49.084;8.646;2023-06-22T07:42:48;6.47;;;6.47;;
20844;SDS011;10583;49.084;8.646;2023-06-22T07:45:16;6.20;;;6.20;;
20844;SDS011;10583;49.084;8.646;2023-06-22T07:47:45;6.13;;;6.13;;
20844;SDS011;10583;49.084;8.646;2023-06-22T07:50:11;5.90;;;5.90;;
20844;SDS011;10583;49.084;8.646;2023-06-22T07:52:38;5.38;;;5.38;;
20844;SDS011;10583;49.084;8.646;2023-06-22T07:55:05;5.90;;;5.90;;
20844;SDS011;10583;49.084;8.646;2023-06-22T07:57:32;5.47;;;5.47;;
20844;SDS011;10583;49.084;8.646;2023-06-22T07:59:59;5.60;;;5.60;;
20844;SDS011;10583;49.084;8.646;2023-06-22T08:02:26;6.03;;;6.03;;
20844;SDS011;10583;49.084;8.646;2023-06-22T08:04:54;5.78;;;5.78;;
20844;SDS011;10583;49.084;8.646;2023-06-22T08:07:20;5.70;;;5.70;;
20844;SDS011;10583;49.084;8.646;2023-06-22T08:09:47;4.97;;;4.97;;
20844;SDS011;10583;49.084;8.646;2023-06-22T08:12:14;5.60;;;5.60;;
20844;SDS011;10583;49.084;8.646;2023-06-22T08:14:42;5.28;;;5.28;;
20844;SDS011;10583;49.084;8.646;2023-06-22T08:17:09;5.88;;;5.88;;
20844;SDS011;10583;49.084;8.646;2023-06-22T08:19:36;5.55;;;5.55;;
20844;SDS011;10583;49.084;8.646;2023-06-22T08:22:05;5.18;;;5.18;;
20844;SDS011;10583;49.084;8.646;2023-06-22T08:24:31;5.20;;;5.20;;
20844;SDS011;10583;49.084;8.646;2023-06-22T08:26:58;6.05;;;6.05;;
20844;SDS011;10583;49.084;8.646;2023-06-22T08:29:25;5.90;;;5.90;;
20844;SDS011;10583;49.084;8.646;2023-06-22T08:31:52;5.65;;;5.65;;
20844;SDS011;10583;49.084;8.646;2023-06-22T08:34:18;6.28;;;6.28;;
20844;SDS011;10583;49.084;8.646;2023-06-22T08:36:48;5.38;;;5.38;;
20844;SDS011;10583;49.084;8.646;2023-06-22T08:39:18;5.85;;;5.85;;
20844;SDS011;10583;49.084;8.646;2023-06-22T08:41:46;5.78;;;5.78;;
20844;SDS011;10583;49.084;8.646;2023-06-22T08:44:12;5.10;;;5.10;;
20844;SDS011;10583;49.084;8.646;2023-06-22T08:46:39;5.22;;;5.22;;
20844;SDS011;10583;49.084;8.646;2023-06-22T08:49:06;5.50;;;5.50;;
20844;SDS011;10583;49.084;8.646;2023-06-22T08:51:34;4.82;;;4.82;;
20844;SDS011;10583;49.084;8.646;2023-06-22T08:54:01;5.28;;;5.28;;
20844;SDS011;10583;49.084;8.646;2023-06-22T08:56:29;4.85;;;4.85;;
20844;SDS011;10583;49.084;8.646;2023-06-22T08:58:56;5.55;;;5.55;;
20844;SDS011;10583;49.084;8.646;2023-06-22T09:01:22;5.05;;;5.05;;
20844;SDS011;10583;49.084;8.646;2023-06-22T09:03:49;4.80;;;4.80;;
20844;SDS011;10583;49.084;8.646;2023-06-22T09:06:19;5.30;;;5.30;;
20844;SDS011;10583;49.084;8.646;2023-06-22T09:08:46;5.32;;;5.32;;
20844;SDS011;10583;49.084;8.646;2023-06-22T09:11:14;4.90;;;4.90;;
20844;SDS011;10583;49.084;8.646;2023-06-22T09:13:42;5.35;;;5.35;;
20844;SDS011;10583;49.084;8.646;2023-06-22T09:16:09;5.22;;;5.22;;
20844;SDS011;10583;49.084;8.646;2023-06-22T09:18:36;4.72;;;4.72;;
20844;SDS011;10583;49.084;8.646;2023-06-22T09:21:03;5.47;;;5.47;;
20844;SDS011;10583;49.084;8.646;2023-06-22T09:23:30;5.13;;;5.13;;
20844;SDS011;10583;49.084;8.646;2023-06-22T09:25:56;5.30;;;5.30;;
20844;SDS011;10583;49.084;8.646;2023-06-22T09:28:23;5.30;;;5.30;;
20844;SDS011;10583;49.084;8.646;2023-06-22T09:30:52;5.28;;;5.28;;
20844;SDS011;10583;49.084;8.646;2023-06-22T09:33:24;5.63;;;5.63;;
20844;SDS011;10583;49.084;8.646;2023-06-22T09:35:51;5.57;;;5.57;;
20844;SDS011;10583;49.084;8.646;2023-06-22T09:38:17;4.88;;;4.88;;
20844;SDS011;10583;49.084;8.646;2023-06-22T09:40:44;5.20;;;5.20;;
20844;SDS011;10583;49.084;8.646;2023-06-22T09:43:10;5.53;;;5.53;;
20844;SDS011;10583;49.084;8.646;2023-06-22T09:45:38;5.43;;;5.43;;
20844;SDS011;10583;49.084;8.646;2023-06-22T09:48:06;5.95;;;5.95;;
20844;SDS011;10583;49.084;8.646;2023-06-22T09:50:34;6.05;;;6.05;;
20844;SDS011;10583;49.084;8.646;2023-06-22T09:53:01;6.45;;;6.45;;
20844;SDS011;10583;49.084;8.646;2023-06-22T09:55:28;5.72;;;5.72;;
20844;SDS011;10583;49.084;8.646;2023-06-22T09:57:54;5.25;;;5.25;;
20844;SDS011;10583;49.084;8.646;2023-06-22T10:00:21;5.60;;;5.60;;
20844;SDS011;10583;49.084;8.646;2023-06-22T10:02:48;5.25;;;5.25;;
20844;SDS011;10583;49.084;8.646;2023-06-22T10:05:16;5.88;;;5.88;;
20844;SDS011;10583;49.084;8.646;2023-06-22T10:07:43;5.55;;;5.55;;
20844;SDS011;10583;49.084;8.646;2023-06-22T10:10:10;6.18;;;6.18;;
20844;SDS011;10583;49.084;8.646;2023-06-22T10:12:40;5.68;;;5.68;;
20844;SDS011;10583;49.084;8.646;2023-06-22T10:15:08;5.50;;;5.50;;
20844;SDS011;10583;49.084;8.646;2023-06-22T10:17:35;5.90;;;5.90;;
20844;SDS011;10583;49.084;8.646;2023-06-22T10:20:02;5.78;;;5.78;;
20844;SDS011;10583;49.084;8.646;2023-06-22T10:22:37;5.93;;;5.93;;
20844;SDS011;10583;49.084;8.646;2023-06-22T10:25:04;6.05;;;6.05;;
20844;SDS011;10583;49.084;8.646;2023-06-22T10:27:32;6.03;;;6.03;;
20844;SDS011;10583;49.084;8.646;2023-06-22T10:29:59;6.20;;;6.20;;
20844;SDS011;10583;49.084;8.646;2023-06-22T10:32:26;6.00;;;6.00;;
20844;SDS011;10583;49.084;8.646;2023-06-22T10:34:53;5.63;;;5.63;;
20844;SDS011;10583;49.084;8.646;2023-06-22T10:37:20;5.50;;;5.50;;
20844;SDS011;10583;49.084;8.646;2023-06-22T10:39:48;5.70;;;5.70;;
20844;SDS011;10583;49.084;8.646;2023-06-22T10:42:14;5.78;;;5.78;;
20844;SDS011;10583;49.084;8.646;2023-06-22T10:44:41;5.60;;;5.60;;
20844;SDS011;10583;49.084;8.646;2023-06-22T10:47:09;5.93;;;5.93;;
20844;SDS011;10583;49.084;8.646;2023-06-22T10:49:36;5.85;;;5.85;;
20844;SDS011;10583;49.084;8.646;2023-06-22T10:52:03;5.55;;;5.55;;
20844;SDS011;10583;49.084;8.646;2023-06-22T10:54:32;5.45;;;5.45;;
20844;SDS011;10583;49.084;8.646;2023-06-22T10:57:00;5.68;;;5.68;;
20844;SDS011;10583;49.084;8.646;2023-06-22T10:59:28;5.45;;;5.45;;
20844;SDS011;10583;49.084;8.646;2023-06-22T11:01:55;5.25;;;5.25;;
20844;SDS011;10583;49.084;8.646;2023-06-22T11:04:22;5.60;;;5.60;;
20844;SDS011;10583;49.084;8.646;2023-06-22T11:06:48;5.70;;;5.70;;
20844;SDS011;10583;49.084;8.646;2023-06-22T11:09:15;5.30;;;5.30;;
20844;SDS011;10583;49.084;8.646;2023-06-22T11:11:45;5.60;;;5.60;;
20844;SDS011;10583;49.084;8.646;2023-06-22T11:14:13;5.18;;;5.18;;
20844;SDS011;10583;49.084;8.646;2023-06-22T11:16:40;5.72;;;5.72;;
20844;SDS011;10583;49.084;8.646;2023-06-22T11:19:06;5.88;;;5.88;;
20844;SDS011;10583;49.084;8.646;2023-06-22T11:21:33;5.82;;;5.82;;
20844;SDS011;10583;49.084;8.646;2023-06-22T11:24:00;6.03;;;6.03;;
20844;SDS011;10583;49.084;8.646;2023-06-22T11:26:27;5.68;;;5.68;;
20844;SDS011;10583;49.084;8.646;2023-06-22T11:28:54;5.57;;;5.57;;
20844;SDS011;10583;49.084;8.646;2023-06-22T11:31:22;6.00;;;6.00;;
20844;SDS011;10583;49.084;8.646;2023-06-22T11:33:48;5.47;;;5.47;;
20844;SDS011;10583;49.084;8.646;2023-06-22T11:36:15;6.60;;;6.60;;
20844;SDS011;10583;49.084;8.646;2023-06-22T11:38:42;5.72;;;5.72;;
20844;SDS011;10583;49.084;8.646;2023-06-22T11:41:09;6.03;;;6.03;;
20844;SDS011;10583;49.084;8.646;2023-06-22T11:43:36;5.97;;;5.97;;
20844;SDS011;10583;49.084;8.646;2023-06-22T11:46:03;5.72;;;5.72;;
20844;SDS011;10583;49.084;8.646;2023-06-22T11:48:31;6.38;;;6.38;;
20844;SDS011;10583;49.084;8.646;2023-06-22T11:50:58;6.13;;;6.13;;
20844;SDS011;10583;49.084;8.646;2023-06-22T11:53:26;6.38;;;6.38;;
20844;SDS011;10583;49.084;8.646;2023-06-22T11:55:52;6.50;;;6.50;;
20844;SDS011;10583;49.084;8.646;2023-06-22T11:58:20;6.30;;;6.30;;
20844;SDS011;10583;49.084;8.646;2023-06-22T12:00:47;6.28;;;6.18;;
20844;SDS011;10583;49.084;8.646;2023-06-22T12:03:14;5.95;;;5.95;;
20844;SDS011;10583;49.084;8.646;2023-06-22T12:05:43;6.20;;;6.20;;
20844;SDS011;10583;49.084;8.646;2023-06-22T12:08:09;6.00;;;6.00;;
20844;SDS011;10583;49.084;8.646;2023-06-22T12:10:37;6.30;;;6.30;;
20844;SDS011;10583;49.084;8.646;2023-06-22T12:13:03;6.82;;;6.82;;
20844;SDS011;10583;49.084;8.646;2023-06-22T12:15:30;6.32;;;6.32;;
20844;SDS011;10583;49.084;8.646;2023-06-22T12:17:57;6.10;;;6.10;;
20844;SDS011;10583;49.084;8.646;2023-06-22T12:20:23;6.30;;;6.30;;
20844;SDS011;10583;49.084;8.646;2023-06-22T12:22:51;6.20;;;6.20;;
20844;SDS011;10583;49.084;8.646;2023-06-22T12:25:21;6.65;;;6.65;;
20844;SDS011;10583;49.084;8.646;2023-06-22T12:27:48;6.40;;;6.40;;
20844;SDS011;10583;49.084;8.646;2023-06-22T12:30:15;6.43;;;6.43;;
20844;SDS011;10583;49.084;8.646;2023-06-22T12:32:42;6.45;;;6.45;;
20844;SDS011;10583;49.084;8.646;2023-06-22T12:35:09;6.18;;;6.18;;
20844;SDS011;10583;49.084;8.646;2023-06-22T12:37:38;6.47;;;6.47;;
20844;SDS011;10583;49.084;8.646;2023-06-22T12:40:08;5.95;;;5.95;;
20844;SDS011;10583;49.084;8.646;2023-06-22T12:42:35;6.38;;;6.32;;
20844;SDS011;10583;49.084;8.646;2023-06-22T12:45:02;6.57;;;6.47;;
20844;SDS011;10583;49.084;8.646;2023-06-22T12:47:29;5.80;;;5.80;;
20844;SDS011;10583;49.084;8.646;2023-06-22T12:49:56;6.57;;;6.57;;
20844;SDS011;10583;49.084;8.646;2023-06-22T12:52:23;6.95;;;6.85;;
20844;SDS011;10583;49.084;8.646;2023-06-22T12:54:50;6.80;;;6.70;;
20844;SDS011;10583;49.084;8.646;2023-06-22T12:57:18;6.47;;;6.47;;
20844;SDS011;10583;49.084;8.646;2023-06-22T12:59:45;5.70;;;5.70;;
20844;SDS011;10583;49.084;8.646;2023-06-22T13:02:12;6.07;;;6.07;;
20844;SDS011;10583;49.084;8.646;2023-06-22T13:04:38;6.00;;;6.00;;
20844;SDS011;10583;49.084;8.646;2023-06-22T13:07:05;6.00;;;5.93;;
20844;SDS011;10583;49.084;8.646;2023-06-22T13:09:32;6.43;;;6.43;;
20844;SDS011;10583;49.084;8.646;2023-06-22T13:11:59;6.53;;;6.53;;
20844;SDS011;10583;49.084;8.646;2023-06-22T13:14:28;6.57;;;6.57;;
20844;SDS011;10583;49.084;8.646;2023-06-22T13:16:55;6.28;;;6.28;;
20844;SDS011;10583;49.084;8.646;2023-06-22T13:19:21;5.97;;;5.97;;
20844;SDS011;10583;49.084;8.646;2023-06-22T13:21:49;6.13;;;6.13;;
20844;SDS011;10583;49.084;8.646;2023-06-22T13:24:16;6.47;;;6.47;;
20844;SDS011;10583;49.084;8.646;2023-06-22T13:26:42;6.38;;;6.38;;
20844;SDS011;10583;49.084;8.646;2023-06-22T13:29:09;6.25;;;6.25;;
20844;SDS011;10583;49.084;8.646;2023-06-22T13:31:38;6.18;;;6.18;;
20844;SDS011;10583;49.084;8.646;2023-06-22T13:34:04;6.88;;;6.78;;
20844;SDS011;10583;49.084;8.646;2023-06-22T13:36:31;6.30;;;6.30;;
20844;SDS011;10583;49.084;8.646;2023-06-22T13:38:58;6.38;;;6.38;;
20844;SDS011;10583;49.084;8.646;2023-06-22T13:41:25;6.30;;;6.30;;
20844;SDS011;10583;49.084;8.646;2023-06-22T13:43:51;6.85;;;6.85;;
20844;SDS011;10583;49.084;8.646;2023-06-22T13:46:18;6.43;;;6.43;;
20844;SDS011;10583;49.084;8.646;2023-06-22T13:48:46;6.75;;;6.75;;
20844;SDS011;10583;49.084;8.646;2023-06-22T13:51:13;6.38;;;6.38;;
20844;SDS011;10583;49.084;8.646;2023-06-22T13:53:39;5.97;;;5.97;;
20844;SDS011;10583;49.084;8.646;2023-06-22T13:56:06;7.05;;;7.05;;
20844;SDS011;10583;49.084;8.646;2023-06-22T13:58:33;6.70;;;6.70;;
20844;SDS011;10583;49.084;8.646;2023-06-22T14:00:59;6.95;;;6.95;;
20844;SDS011;10583;49.084;8.646;2023-06-22T14:03:26;7.22;;;7.22;;
20844;SDS011;10583;49.084;8.646;2023-06-22T14:05:54;6.65;;;6.65;;
20844;SDS011;10583;49.084;8.646;2023-06-22T14:08:21;7.05;;;7.05;;
20844;SDS011;10583;49.084;8.646;2023-06-22T14:10:50;5.93;;;5.93;;
20844;SDS011;10583;49.084;8.646;2023-06-22T14:13:18;7.35;;;7.32;;
20844;SDS011;10583;49.084;8.646;2023-06-22T14:15:45;6.80;;;6.80;;
20844;SDS011;10583;49.084;8.646;2023-06-22T14:18:13;6.90;;;6.90;;
20844;SDS011;10583;49.084;8.646;2023-06-22T14:20:40;6.88;;;6.88;;
20844;SDS011;10583;49.084;8.646;2023-06-22T14:23:08;6.63;;;6.63;;
20844;SDS011;10583;49.084;8.646;2023-06-22T14:25:34;7.15;;;7.15;;
20844;SDS011;10583;49.084;8.646;2023-06-22T14:28:01;6.75;;;6.75;;
20844;SDS011;10583;49.084;8.646;2023-06-22T14:30:28;6.78;;;6.78;;
20844;SDS011;10583;49.084;8.646;2023-06-22T14:32:54;6.80;;;6.80;;
20844;SDS011;10583;49.084;8.646;2023-06-22T14:35:21;6.93;;;6.93;;
20844;SDS011;10583;49.084;8.646;2023-06-22T14:37:49;6.75;;;6.75;;
20844;SDS011;10583;49.084;8.646;2023-06-22T14:40:17;7.28;;;7.28;;
20844;SDS011;10583;49.084;8.646;2023-06-22T14:42:43;7.38;;;7.28;;
20844;SDS011;10583;49.084;8.646;2023-06-22T14:45:10;7.40;;;7.30;;
20844;SDS011;10583;49.084;8.646;2023-06-22T14:47:38;7.03;;;7.03;;
20844;SDS011;10583;49.084;8.646;2023-06-22T14:50:05;6.40;;;6.40;;